WMKM/MKZ METAR and TAF weather

Enter ICAO airport designator
Station Type Date Time Source
WMKM METAR 2020/11/28 18:00 UTC NOAA

WMKM 281800Z VRB02KT 9999 FEW028 25/23 Q1011


Station Type Date Time Source
WMKM Decoded METAR 2020/11/28 18:00 UTC NOAA

Malacca, Malaysia (WMKM) 02-16N 102-15E 9M
Nov 28, 2020 - 01:00 PM EST / 2020.11.28 1800 UTC
Wind: Variable at 2 MPH (2 KT):0
Visibility: greater than 7 mile(s):0
Sky conditions: mostly clear
Temperature: 77 F (25 C)
Dew Point: 73 F (23 C)
Relative Humidity: 88%
Pressure (altimeter): 29.85 in. Hg (1011 hPa)
ob: WMKM 281800Z VRB02KT 9999 FEW028 25/23 Q1011
cycle: 18

Station Type Date Time Source
WMKM TAF 2020/11/28 18:00 UTC NOAA

TAF WMKM 281700Z 2818/2918 04005KT 9999 FEW017CB PROB30
TEMPO 2821/2901 4000 TSRA FEW010 FEW016CB BKN018

Example: see airport list